createdAt,value
2019-01-23T00:02:37.146Z,12.56
2019-01-23T00:05:18.209Z,12.50
2019-01-23T00:07:59.072Z,12.51
2019-01-23T00:10:40.242Z,12.44
2019-01-23T00:13:21.309Z,12.41
2019-01-23T00:16:02.283Z,12.34
2019-01-23T00:18:43.235Z,12.31
2019-01-23T00:21:23.897Z,12.32
2019-01-23T00:24:04.873Z,12.36
2019-01-23T00:26:46.441Z,12.46
2019-01-23T00:29:27.082Z,12.47
2019-01-23T00:32:08.052Z,12.49
2019-01-23T00:34:49.085Z,12.53
2019-01-23T00:37:29.963Z,12.52
2019-01-23T00:40:10.901Z,12.47
2019-01-23T00:42:51.553Z,12.54
2019-01-23T00:45:32.445Z,12.47
2019-01-23T00:48:13.845Z,12.37
2019-01-23T00:50:54.768Z,12.45
2019-01-23T00:53:36.360Z,12.41
2019-01-23T00:56:17.619Z,12.42
2019-01-23T00:58:58.900Z,12.40
2019-01-23T01:01:40.287Z,12.44
2019-01-23T01:04:20.501Z,12.46
2019-01-23T01:07:01.649Z,12.47
2019-01-23T01:09:42.768Z,12.52
2019-01-23T01:12:23.723Z,12.49
2019-01-23T01:15:04.826Z,12.61
2019-01-23T01:17:46.283Z,12.71
2019-01-23T01:20:27.246Z,12.82
2019-01-23T01:23:08.208Z,12.96
2019-01-23T01:25:49.306Z,13.13
2019-01-23T01:28:30.196Z,13.28
2019-01-23T01:31:11.307Z,13.44
2019-01-23T01:33:52.372Z,13.58
2019-01-23T01:36:33.404Z,13.77
2019-01-23T01:39:14.399Z,13.98
2019-01-23T01:41:55.559Z,14.18
2019-01-23T01:44:36.669Z,14.29
2019-01-23T01:47:18.284Z,14.39
2019-01-23T01:49:59.180Z,14.53
2019-01-23T01:52:40.403Z,14.68
2019-01-23T01:55:21.353Z,14.82
2019-01-23T01:58:02.599Z,14.93
2019-01-23T02:00:43.602Z,15.12
2019-01-23T02:03:24.722Z,15.41
2019-01-23T02:06:06.431Z,15.63
2019-01-23T02:08:47.443Z,15.93
2019-01-23T02:11:28.995Z,16.39
2019-01-23T02:14:10.259Z,16.86
2019-01-23T02:16:51.247Z,17.27
2019-01-23T02:19:32.516Z,17.72
2019-01-23T02:22:13.531Z,18.26
2019-01-23T02:24:54.444Z,18.77
2019-01-23T02:27:35.633Z,19.12
2019-01-23T02:30:16.520Z,19.40
2019-01-23T02:32:57.429Z,19.68
2019-01-23T02:35:38.401Z,20.20
2019-01-23T02:38:19.909Z,20.58
2019-01-23T02:41:00.676Z,20.93
2019-01-23T02:43:41.848Z,21.32
2019-01-23T02:46:23.417Z,21.47
2019-01-23T02:49:04.343Z,21.62
2019-01-23T02:51:45.372Z,22.09
2019-01-23T02:54:25.942Z,22.37
2019-01-23T02:57:06.810Z,22.56
2019-01-23T02:59:47.406Z,22.55
2019-01-23T03:02:28.638Z,22.97
2019-01-23T03:05:09.720Z,23.52
2019-01-23T03:07:50.729Z,23.92
2019-01-23T03:10:31.712Z,24.26
2019-01-23T03:13:12.993Z,24.48
2019-01-23T03:15:53.745Z,24.57
2019-01-23T03:18:34.483Z,24.98
2019-01-23T03:21:15.892Z,25.24
2019-01-23T03:23:56.939Z,25.31
2019-01-23T03:26:37.887Z,25.56
2019-01-23T03:29:24.556Z,25.79
2019-01-23T03:32:00.084Z,25.70
2019-01-23T03:34:41.353Z,25.53
2019-01-23T03:37:22.297Z,25.57
2019-01-23T03:40:03.441Z,25.59
2019-01-23T03:42:44.293Z,25.56
2019-01-23T03:45:25.466Z,25.41
2019-01-23T03:48:06.754Z,25.41
2019-01-23T03:50:47.814Z,25.43
2019-01-23T03:53:28.709Z,25.38
2019-01-23T03:56:09.654Z,25.32
2019-01-23T03:58:50.512Z,25.21
2019-01-23T04:01:31.614Z,25.31
2019-01-23T04:04:12.623Z,25.26
2019-01-23T04:06:53.802Z,25.51
2019-01-23T04:09:34.625Z,25.71
2019-01-23T04:12:14.767Z,25.81
2019-01-23T04:14:56.005Z,25.97
2019-01-23T04:17:36.442Z,26.00
2019-01-23T04:20:17.037Z,26.01
2019-01-23T04:22:57.888Z,26.14
2019-01-23T04:25:38.514Z,26.38
2019-01-23T04:28:19.855Z,26.59
2019-01-23T04:31:00.862Z,26.56
2019-01-23T04:33:41.715Z,26.45
2019-01-23T04:36:22.811Z,26.56
2019-01-23T04:39:03.747Z,26.79
2019-01-23T04:41:44.676Z,26.90
2019-01-23T04:44:25.241Z,26.92
2019-01-23T04:47:06.591Z,27.01
2019-01-23T04:49:48.183Z,27.09
2019-01-23T04:52:29.208Z,27.17
2019-01-23T04:55:10.080Z,27.26
2019-01-23T04:57:51.399Z,27.32
2019-01-23T05:00:32.303Z,27.34
2019-01-23T05:03:13.154Z,27.27
2019-01-23T05:05:53.947Z,27.47
2019-01-23T05:08:34.752Z,27.26
2019-01-23T05:11:15.304Z,27.36
2019-01-23T05:13:56.594Z,27.58
2019-01-23T05:16:37.670Z,27.07
2019-01-23T05:19:18.822Z,27.20
2019-01-23T05:21:59.487Z,27.57
2019-01-23T05:24:41.296Z,27.76
2019-01-23T05:27:22.278Z,27.73
2019-01-23T05:30:02.835Z,28.19
2019-01-23T05:32:43.838Z,28.24
2019-01-23T05:35:24.864Z,28.38
2019-01-23T05:38:06.783Z,28.33
2019-01-23T05:40:48.032Z,28.37
2019-01-23T05:43:28.998Z,28.29
2019-01-23T05:46:09.610Z,28.61
2019-01-23T05:48:50.470Z,28.70
2019-01-23T05:51:31.310Z,28.81
2019-01-23T05:54:12.190Z,28.78
2019-01-23T05:56:53.050Z,28.78
2019-01-23T05:59:34.123Z,28.88
2019-01-23T06:02:14.490Z,29.07
2019-01-23T06:04:56.250Z,28.47
2019-01-23T06:07:39.012Z,27.83
2019-01-23T06:10:20.358Z,28.30
2019-01-23T06:13:01.478Z,28.43
2019-01-23T06:15:42.548Z,28.75
2019-01-23T06:18:23.149Z,28.74
2019-01-23T06:21:04.077Z,28.29
2019-01-23T06:23:45.066Z,28.39
2019-01-23T06:26:25.834Z,28.51
2019-01-23T06:29:06.735Z,28.96
2019-01-23T06:31:46.885Z,29.37
2019-01-23T06:34:27.864Z,29.33
2019-01-23T06:37:08.505Z,29.23
2019-01-23T06:39:49.562Z,29.22
2019-01-23T06:42:30.637Z,29.35
2019-01-23T06:45:11.082Z,29.43
2019-01-23T06:47:51.699Z,29.45
2019-01-23T06:50:32.663Z,29.27
2019-01-23T06:53:14.217Z,29.40
2019-01-23T06:55:53.959Z,28.51
2019-01-23T06:58:34.029Z,28.70
2019-01-23T07:01:14.581Z,28.84
2019-01-23T07:03:55.040Z,29.45
2019-01-23T07:06:35.995Z,29.05
2019-01-23T07:09:17.444Z,29.28
2019-01-23T07:11:58.177Z,29.51
2019-01-23T07:14:38.055Z,29.27
2019-01-23T07:17:18.712Z,29.61
2019-01-23T07:19:58.940Z,29.73
2019-01-23T07:22:40.439Z,29.53
2019-01-23T07:25:21.715Z,29.56
2019-01-23T07:28:02.274Z,29.71
2019-01-23T07:30:42.935Z,29.67
2019-01-23T07:33:23.694Z,29.85
2019-01-23T07:36:04.483Z,29.90
2019-01-23T07:38:45.509Z,30.02
2019-01-23T07:41:26.535Z,30.15
2019-01-23T07:44:07.709Z,30.10
2019-01-23T07:46:48.763Z,30.14
2019-01-23T07:49:29.590Z,29.80
2019-01-23T07:52:10.655Z,29.75
2019-01-23T07:54:51.231Z,30.04
2019-01-23T07:57:32.173Z,30.13
2019-01-23T08:00:12.546Z,30.08
2019-01-23T08:02:53.328Z,29.87
2019-01-23T08:05:34.750Z,30.29
2019-01-23T08:08:15.474Z,30.74
2019-01-23T08:10:56.581Z,30.70
2019-01-23T08:13:37.090Z,30.09
2019-01-23T08:16:17.932Z,30.22
2019-01-23T08:18:58.888Z,30.44
2019-01-23T08:21:39.862Z,30.41
2019-01-23T08:24:20.267Z,30.38
2019-01-23T08:27:06.890Z,30.57
2019-01-23T08:29:42.748Z,30.62
2019-01-23T08:32:23.180Z,30.51
2019-01-23T08:35:04.067Z,30.55
2019-01-23T08:37:45.138Z,30.57
2019-01-23T08:40:26.252Z,30.53
2019-01-23T08:43:06.891Z,30.54
2019-01-23T08:45:48.262Z,30.36
2019-01-23T08:48:28.613Z,30.15
2019-01-23T08:51:09.545Z,30.06
2019-01-23T08:53:49.769Z,30.37
2019-01-23T08:56:30.420Z,30.11
2019-01-23T08:59:11.387Z,30.16
2019-01-23T09:01:51.902Z,30.03
2019-01-23T09:04:32.673Z,30.20
2019-01-23T09:07:13.630Z,30.33
2019-01-23T09:09:54.586Z,30.51
2019-01-23T09:12:35.965Z,30.51
2019-01-23T09:15:17.139Z,30.47
2019-01-23T09:17:58.356Z,30.39
2019-01-23T09:20:39.508Z,30.38
2019-01-23T09:23:20.664Z,30.46
2019-01-23T09:26:01.229Z,30.21
2019-01-23T09:28:42.195Z,30.22
2019-01-23T09:31:23.186Z,30.43
2019-01-23T09:34:03.596Z,30.56
2019-01-23T09:36:44.409Z,30.72
2019-01-23T09:39:24.550Z,30.50
2019-01-23T09:42:06.936Z,30.62
2019-01-23T09:44:50.513Z,30.64
2019-01-23T09:47:31.880Z,30.39
2019-01-23T09:50:12.874Z,30.25
2019-01-23T09:52:53.865Z,30.39
2019-01-23T09:55:34.392Z,30.45
2019-01-23T09:58:15.231Z,30.38
2019-01-23T10:00:59.691Z,30.35
2019-01-23T10:03:38.088Z,30.44
2019-01-23T10:06:17.960Z,30.45
2019-01-23T10:08:58.270Z,30.42
2019-01-23T10:11:39.181Z,30.36
2019-01-23T10:14:20.157Z,30.34
2019-01-23T10:17:01.120Z,30.51
2019-01-23T10:19:41.607Z,30.54
2019-01-23T10:22:22.707Z,30.51
2019-01-23T10:25:03.269Z,30.50
2019-01-23T10:27:43.983Z,30.35
2019-01-23T10:30:24.640Z,30.05
2019-01-23T10:33:05.070Z,29.84
2019-01-23T10:35:46.549Z,29.63
2019-01-23T10:38:27.509Z,29.42
2019-01-23T10:41:07.556Z,29.27
2019-01-23T10:43:48.545Z,29.20
2019-01-23T10:46:29.222Z,29.16
2019-01-23T10:49:10.180Z,29.09
2019-01-23T10:51:50.714Z,28.96
2019-01-23T10:54:31.668Z,28.73
2019-01-23T10:57:12.777Z,28.50
2019-01-23T10:59:53.218Z,28.26
2019-01-23T11:02:34.352Z,28.01
2019-01-23T11:05:14.632Z,27.80
2019-01-23T11:07:55.443Z,27.56
2019-01-23T11:10:35.929Z,27.37
2019-01-23T11:13:16.573Z,27.16
2019-01-23T11:15:57.694Z,26.90
2019-01-23T11:18:38.690Z,26.64
2019-01-23T11:21:19.712Z,26.37
2019-01-23T11:24:00.046Z,26.11
2019-01-23T11:26:41.375Z,25.92
2019-01-23T11:29:22.549Z,25.75
2019-01-23T11:32:03.360Z,25.54
2019-01-23T11:34:44.145Z,25.30
2019-01-23T11:37:24.529Z,25.06
2019-01-23T11:40:05.238Z,24.85
2019-01-23T11:42:46.529Z,24.67
2019-01-23T11:45:26.824Z,24.47
2019-01-23T11:48:07.376Z,24.28
2019-01-23T11:50:48.009Z,24.16
2019-01-23T11:53:29.053Z,23.96
2019-01-23T11:56:10.272Z,23.75
2019-01-23T11:58:50.976Z,23.62
2019-01-23T12:01:31.333Z,23.47
2019-01-23T12:04:12.095Z,23.31
2019-01-23T12:06:53.845Z,23.14
2019-01-23T12:09:34.395Z,22.97
2019-01-23T12:12:15.407Z,22.84
2019-01-23T12:14:56.789Z,22.80
2019-01-23T12:17:37.419Z,22.68
2019-01-23T12:20:18.411Z,22.53
2019-01-23T12:22:59.594Z,22.34
2019-01-23T12:25:40.603Z,22.14
2019-01-23T12:28:21.345Z,21.94
2019-01-23T12:31:01.977Z,21.74
2019-01-23T12:33:43.168Z,21.29
2019-01-23T12:36:23.886Z,21.00
2019-01-23T12:39:05.288Z,20.95
2019-01-23T12:41:45.875Z,20.93
2019-01-23T12:44:26.800Z,20.85
2019-01-23T12:47:07.469Z,20.81
2019-01-23T12:49:47.666Z,20.81
2019-01-23T12:52:30.362Z,20.79
2019-01-23T12:55:11.973Z,20.73
2019-01-23T12:57:53.510Z,20.69
2019-01-23T13:00:34.990Z,20.64
2019-01-23T13:03:15.647Z,20.56
2019-01-23T13:05:55.961Z,20.46
2019-01-23T13:08:36.395Z,20.32
2019-01-23T13:11:20.607Z,20.23
2019-01-23T13:14:01.905Z,20.19
2019-01-23T13:16:44.594Z,20.11
2019-01-23T13:19:25.486Z,20.10
2019-01-23T13:22:06.478Z,20.09
2019-01-23T13:24:47.074Z,20.02
2019-01-23T13:27:28.118Z,19.92
2019-01-23T13:30:09.239Z,19.83
2019-01-23T13:32:50.246Z,19.81
2019-01-23T13:35:31.136Z,19.75
2019-01-23T13:38:11.705Z,19.72
2019-01-23T13:40:52.525Z,19.67
2019-01-23T13:43:33.034Z,19.59
2019-01-23T13:46:13.792Z,19.55
2019-01-23T13:48:54.584Z,19.09
2019-01-23T13:51:37.812Z,18.98
2019-01-23T13:54:18.550Z,19.00
2019-01-23T13:56:59.764Z,19.01
2019-01-23T13:59:40.512Z,18.99
2019-01-23T14:02:21.575Z,18.94
2019-01-23T14:05:02.118Z,18.92
2019-01-23T14:07:43.405Z,18.95
2019-01-23T14:10:24.026Z,18.92
2019-01-23T14:13:04.965Z,18.85
2019-01-23T14:15:46.270Z,18.79
2019-01-23T14:18:27.314Z,18.75
2019-01-23T14:21:08.792Z,18.80
2019-01-23T14:23:49.016Z,18.75
2019-01-23T14:29:22.327Z,18.62
2019-01-23T14:32:03.814Z,18.47
2019-01-23T14:34:46.821Z,18.52
2019-01-23T14:37:29.605Z,18.47
2019-01-23T14:40:10.297Z,18.42
2019-01-23T14:42:51.211Z,18.38
2019-01-23T14:45:32.275Z,18.30
2019-01-23T14:48:13.162Z,18.09
2019-01-23T14:50:53.686Z,18.18
2019-01-23T14:53:35.378Z,18.18
2019-01-23T14:56:15.683Z,18.23
2019-01-23T14:58:56.663Z,18.21
2019-01-23T15:01:37.308Z,18.18
2019-01-23T15:04:19.014Z,18.02
2019-01-23T15:07:00.166Z,18.04
2019-01-23T15:09:40.708Z,18.05
2019-01-23T15:12:21.439Z,18.05
2019-01-23T15:15:02.403Z,17.94
2019-01-23T15:17:43.703Z,17.90
2019-01-23T15:20:25.102Z,17.97
2019-01-23T15:23:07.186Z,17.98
2019-01-23T15:25:48.306Z,17.85
2019-01-23T15:28:29.173Z,17.83
2019-01-23T15:31:09.755Z,17.76
2019-01-23T15:33:50.821Z,17.73
2019-01-23T15:36:31.688Z,17.65
2019-01-23T15:39:13.076Z,17.56
2019-01-23T15:41:54.305Z,17.50
2019-01-23T15:44:35.428Z,17.46
2019-01-23T15:47:16.182Z,17.38
2019-01-23T15:49:57.604Z,17.34
2019-01-23T15:52:39.148Z,17.31
2019-01-23T15:55:21.922Z,17.32
2019-01-23T15:58:02.780Z,17.25
2019-01-23T16:00:45.361Z,17.24
2019-01-23T16:03:26.539Z,17.24
2019-01-23T16:06:07.427Z,17.20
2019-01-23T16:08:48.245Z,17.15
2019-01-23T16:11:29.964Z,17.13
2019-01-23T16:14:11.570Z,17.10
2019-01-23T16:16:52.655Z,17.07
2019-01-23T16:19:33.823Z,17.10
2019-01-23T16:22:14.337Z,17.05
2019-01-23T16:24:55.470Z,17.07
2019-01-23T16:30:21.175Z,17.10
2019-01-23T16:33:02.231Z,17.09
2019-01-23T16:35:43.074Z,17.10
2019-01-23T16:38:24.179Z,17.28
2019-01-23T16:41:06.025Z,17.22
2019-01-23T16:43:47.327Z,17.12
2019-01-23T16:46:28.244Z,17.00
2019-01-23T16:49:09.023Z,16.98
2019-01-23T16:51:51.410Z,17.03
2019-01-23T16:54:32.187Z,17.02
2019-01-23T16:57:13.361Z,17.00
2019-01-23T16:59:54.615Z,16.90
2019-01-23T17:02:38.628Z,16.90
2019-01-23T17:05:16.503Z,16.83
2019-01-23T17:08:01.801Z,16.81
2019-01-23T17:13:32.882Z,16.73
2019-01-23T17:16:15.420Z,16.73
2019-01-23T17:18:57.581Z,16.72
2019-01-23T17:21:38.097Z,16.74
2019-01-23T17:24:23.027Z,16.84
2019-01-23T17:27:06.482Z,16.70
2019-01-23T17:29:47.820Z,16.58
2019-01-23T17:35:18.331Z,16.40
2019-01-23T17:38:04.221Z,16.38
2019-01-23T17:51:58.135Z,16.32
2019-01-23T17:54:39.090Z,16.22
2019-01-23T17:57:20.025Z,16.15
2019-01-23T18:00:01.029Z,16.17
2019-01-23T18:02:42.920Z,16.12
2019-01-23T18:05:23.950Z,16.12
2019-01-23T18:08:05.261Z,16.10
2019-01-23T18:10:45.854Z,16.14
2019-01-23T18:13:26.693Z,16.11
2019-01-23T18:16:13.487Z,16.05
2019-01-23T18:18:54.174Z,15.98
2019-01-23T18:21:34.982Z,15.90
2019-01-23T18:24:15.649Z,15.90
2019-01-23T18:26:56.286Z,15.88
2019-01-23T18:29:37.275Z,15.84
2019-01-23T18:32:17.949Z,15.85
2019-01-23T18:34:58.835Z,15.85
2019-01-23T18:37:39.660Z,15.84
2019-01-23T18:40:20.356Z,15.89
2019-01-23T18:43:01.290Z,15.91
2019-01-23T18:45:41.984Z,15.82
2019-01-23T18:48:23.357Z,15.71
2019-01-23T18:51:04.590Z,15.64
2019-01-23T18:53:45.648Z,15.63
2019-01-23T18:56:26.616Z,15.62
2019-01-23T18:59:07.724Z,15.59
2019-01-23T19:01:48.853Z,15.58
2019-01-23T19:04:29.849Z,15.50
2019-01-23T19:07:10.459Z,15.46
2019-01-23T19:09:52.363Z,15.54
2019-01-23T19:12:32.702Z,15.49
2019-01-23T19:15:12.917Z,15.45
2019-01-23T19:17:54.099Z,15.44
2019-01-23T19:20:34.981Z,15.42
2019-01-23T19:23:15.581Z,15.42
2019-01-23T19:25:55.943Z,15.33
2019-01-23T19:28:36.977Z,15.27
2019-01-23T19:31:17.593Z,15.42
2019-01-23T19:33:58.274Z,15.40
2019-01-23T19:36:39.417Z,15.29
2019-01-23T19:39:20.447Z,15.29
2019-01-23T19:42:01.307Z,15.26
2019-01-23T19:44:41.984Z,15.34
2019-01-23T19:47:22.959Z,15.29
2019-01-23T19:50:03.715Z,15.17
2019-01-23T19:52:44.508Z,15.12
2019-01-23T19:55:24.966Z,15.12
2019-01-23T19:58:06.117Z,15.11
2019-01-23T20:00:46.796Z,15.01
2019-01-23T20:03:28.065Z,15.01
2019-01-23T20:06:08.836Z,14.91
2019-01-23T20:08:49.545Z,14.86
2019-01-23T20:11:30.597Z,14.86
2019-01-23T20:14:11.516Z,14.85
2019-01-23T20:16:52.551Z,14.78
2019-01-23T20:19:33.695Z,14.70
2019-01-23T20:22:14.517Z,14.63
2019-01-23T20:24:55.745Z,14.61
2019-01-23T20:27:36.680Z,14.60
2019-01-23T20:30:17.662Z,14.56
2019-01-23T20:32:58.438Z,14.56
2019-01-23T20:35:39.455Z,14.58
2019-01-23T20:38:20.066Z,14.57
2019-01-23T20:41:01.546Z,14.53
2019-01-23T20:43:42.067Z,14.60
2019-01-23T20:46:23.391Z,14.62
2019-01-23T20:49:04.381Z,14.57
2019-01-23T20:51:45.240Z,14.63
2019-01-23T20:54:25.786Z,14.68
2019-01-23T20:57:07.261Z,14.59
2019-01-23T20:59:48.164Z,14.50
2019-01-23T21:02:28.609Z,14.42
2019-01-23T21:05:09.229Z,14.38
2019-01-23T21:07:49.818Z,14.33
2019-01-23T21:10:30.475Z,14.30
2019-01-23T21:13:10.964Z,14.32
2019-01-23T21:15:51.672Z,14.33
2019-01-23T21:18:31.992Z,14.33
2019-01-23T21:21:12.376Z,14.37
2019-01-23T21:23:52.805Z,14.39
2019-01-23T21:26:33.182Z,14.42
2019-01-23T21:29:13.822Z,14.46
2019-01-23T21:31:54.474Z,14.48
2019-01-23T21:34:35.189Z,14.48
2019-01-23T21:37:16.178Z,14.42
2019-01-23T21:39:56.839Z,14.30
2019-01-23T21:42:37.511Z,14.21
2019-01-23T21:45:18.159Z,14.13
2019-01-23T21:47:58.750Z,14.26
2019-01-23T21:50:39.391Z,14.37
2019-01-23T21:53:19.828Z,14.26
2019-01-23T21:56:00.806Z,14.11
2019-01-23T21:58:42.330Z,14.03
2019-01-23T22:01:23.296Z,13.88
2019-01-23T22:04:04.101Z,13.84
2019-01-23T22:06:45.133Z,13.82
2019-01-23T22:09:26.180Z,13.87
2019-01-23T22:12:07.458Z,13.87
2019-01-23T22:14:48.346Z,13.86
2019-01-23T22:17:28.971Z,13.91
2019-01-23T22:20:09.780Z,13.87
2019-01-23T22:22:50.953Z,13.83
2019-01-23T22:25:31.584Z,13.82
2019-01-23T22:28:12.399Z,13.80
2019-01-23T22:30:53.374Z,13.84
2019-01-23T22:33:34.219Z,13.88
2019-01-23T22:36:15.166Z,13.90
2019-01-23T22:38:56.469Z,13.94
2019-01-23T22:41:37.986Z,13.93
2019-01-23T22:44:18.970Z,13.92
2019-01-23T22:47:00.196Z,13.91
2019-01-23T22:49:41.107Z,13.93
2019-01-23T22:52:21.753Z,13.94
2019-01-23T22:55:02.827Z,13.93
2019-01-23T22:57:44.389Z,13.90
2019-01-23T23:00:25.232Z,13.85
2019-01-23T23:03:06.647Z,13.82
2019-01-23T23:05:47.534Z,13.85
2019-01-23T23:08:28.529Z,13.83
2019-01-23T23:11:09.319Z,13.81
2019-01-23T23:13:50.579Z,13.84
2019-01-23T23:16:31.741Z,13.86
2019-01-23T23:19:13.753Z,13.88
2019-01-23T23:21:54.905Z,13.87
2019-01-23T23:24:36.088Z,13.85
2019-01-23T23:27:16.972Z,13.87
2019-01-23T23:29:57.685Z,13.89
2019-01-23T23:32:38.462Z,13.90
2019-01-23T23:35:19.386Z,13.97
2019-01-23T23:38:00.676Z,14.15
2019-01-23T23:40:41.978Z,14.01
2019-01-23T23:43:23.042Z,13.92
2019-01-23T23:46:03.797Z,13.98
2019-01-23T23:48:44.821Z,13.97
2019-01-23T23:51:26.104Z,13.99
2019-01-23T23:54:07.378Z,14.10
2019-01-23T23:56:48.255Z,14.16
2019-01-23T23:59:29.313Z,14.10
